Time;durP1;ratioP1;P1;durP2;ratioP2;P2;SDS_P1;SDS_P2;PMS_P1;PMS_P2;Temp;Humidity;BMP_temperature;BMP_pressure;BME280_temperature;BME280_humidity;BME280_pressure;Samples;Min_cycle;Max_cycle;Signal;HPM_P1;HPM_P2
2022/09/17 00:01:08;;;;;;;33.03;5.07;;;12.30;99.90;;;;;;5069071;28;20020;-78
2022/09/17 00:03:34;;;;;;;31.02;4.47;;;12.40;99.90;;;;;;5046869;28;20032;-77
2022/09/17 00:06:00;;;;;;;29.85;5.25;;;12.30;99.90;;;;;;5068253;28;20044;-77
2022/09/17 00:08:26;;;;;;;33.38;4.90;;;12.30;99.90;;;;;;5066082;28;20107;-77
2022/09/17 00:10:51;;;;;;;31.10;5.10;;;12.30;99.90;;;;;;5071237;28;20052;-77
2022/09/17 00:13:17;;;;;;;31.15;5.57;;;12.30;99.90;;;;;;5072211;28;20024;-77
2022/09/17 00:15:45;;;;;;;29.23;4.60;;;12.20;99.90;;;;;;5066567;28;20173;-78
2022/09/17 00:18:13;;;;;;;28.27;4.75;;;12.30;99.90;;;;;;5069247;28;20063;-77
2022/09/17 00:20:44;;;;;;;31.65;5.13;;;12.20;99.90;;;;;;5065318;28;20624;-77
2022/09/17 00:23:11;;;;;;;37.30;4.60;;;12.30;99.90;;;;;;5046657;28;20502;-78
2022/09/17 00:25:41;;;;;;;33.35;5.78;;;12.30;99.90;;;;;;5071566;28;20036;-77
2022/09/17 00:28:08;;;;;;;25.77;4.82;;;12.30;99.90;;;;;;5066312;28;20111;-76
2022/09/17 00:30:34;;;;;;;23.80;3.60;;;12.30;99.90;;;;;;5058177;28;20667;-77
2022/09/17 00:33:00;;;;;;;28.65;4.32;;;12.30;99.90;;;;;;5046422;28;20022;-77
2022/09/17 00:35:26;;;;;;;21.25;3.70;;;12.30;99.90;;;;;;5065188;28;20338;-77
2022/09/17 00:37:52;;;;;;;19.30;3.75;;;12.30;99.90;;;;;;5066258;28;20086;-76
2022/09/17 00:40:19;;;;;;;35.17;4.78;;;12.30;99.90;;;;;;5068018;28;20032;-77
2022/09/17 00:42:45;;;;;;;29.70;3.65;;;12.30;99.90;;;;;;5062151;28;20047;-77
2022/09/17 00:45:12;;;;;;;28.70;4.03;;;12.30;99.90;;;;;;5063272;28;20748;-77
2022/09/17 00:47:44;;;;;;;28.38;4.13;;;12.30;99.90;;;;;;5046427;28;20029;-76
2022/09/17 00:50:14;;;;;;;23.15;3.55;;;12.20;99.90;;;;;;5042462;28;20416;-77
2022/09/17 00:52:53;;;;;;;26.60;5.20;;;12.20;99.90;;;;;;5059161;28;20084;-77
2022/09/17 00:55:24;;;;;;;27.75;4.35;;;12.20;99.90;;;;;;5050886;28;20285;-77
2022/09/17 00:57:53;;;;;;;29.52;4.32;;;12.10;99.90;;;;;;5064246;28;20082;-77
2022/09/17 01:00:21;;;;;;;18.50;3.30;;;12.10;99.90;;;;;;5062417;28;20029;-77
2022/09/17 01:02:47;;;;;;;31.30;4.18;;;12.10;99.90;;;;;;5062455;28;20510;-77
2022/09/17 01:05:15;;;;;;;30.90;4.28;;;12.10;99.90;;;;;;5060748;28;20040;-77
2022/09/17 01:07:59;;;;;;;17.40;3.08;;;12.10;99.90;;;;;;5065658;28;20032;-77
2022/09/17 01:10:46;;;;;;;21.20;3.83;;;12.00;99.90;;;;;;5063897;28;20044;-78
2022/09/17 01:13:27;;;;;;;27.38;4.40;;;12.00;99.90;;;;;;5081722;28;20021;-77
2022/09/17 01:16:08;;;;;;;22.92;3.47;;;12.00;99.90;;;;;;5045675;28;20021;-77
2022/09/17 01:19:07;;;;;;;27.98;5.07;;;12.00;99.90;;;;;;5057032;28;20051;-76
2022/09/17 01:22:01;;;;;;;18.55;2.72;;;12.00;99.90;;;;;;5079078;28;20079;-76
2022/09/17 01:24:32;;;;;;;20.85;3.60;;;12.00;99.90;;;;;;5064984;28;20036;-77
2022/09/17 01:27:30;;;;;;;20.83;3.90;;;12.00;99.90;;;;;;5061529;28;20036;-77
2022/09/17 01:30:33;;;;;;;24.20;4.03;;;12.00;99.90;;;;;;5069423;28;20024;-76
2022/09/17 01:33:25;;;;;;;16.35;2.85;;;12.00;99.90;;;;;;5062270;28;20059;-77
2022/09/17 01:36:16;;;;;;;22.83;3.58;;;12.00;99.90;;;;;;5052171;28;20020;-76
2022/09/17 01:38:54;;;;;;;23.23;4.20;;;12.00;99.90;;;;;;5070935;28;20407;-77
2022/09/17 01:42:11;;;;;;;13.98;2.80;;;11.90;99.90;;;;;;5077338;28;20072;-77
2022/09/17 01:44:37;;;;;;;18.88;3.22;;;11.90;99.90;;;;;;5055258;28;20513;-77
2022/09/17 01:47:15;;;;;;;17.88;3.28;;;11.90;99.90;;;;;;5062098;28;20043;-77
2022/09/17 01:49:43;;;;;;;21.77;3.58;;;12.00;99.90;;;;;;5047946;28;20020;-77
2022/09/17 01:52:11;;;;;;;20.10;3.38;;;12.00;99.90;;;;;;5080306;28;20020;-77
2022/09/17 01:54:44;;;;;;;20.58;3.17;;;12.00;99.90;;;;;;5060716;28;20028;-77
2022/09/17 01:57:32;;;;;;;19.98;3.05;;;12.00;99.90;;;;;;5076719;28;20037;-78
2022/09/17 02:00:01;;;;;;;19.77;3.08;;;12.00;99.90;;;;;;5062763;28;20107;-77
2022/09/17 02:02:55;;;;;;;19.45;3.17;;;12.00;99.90;;;;;;5066119;28;20024;-75
2022/09/17 02:05:27;;;;;;;30.00;4.13;;;12.00;99.90;;;;;;5045450;28;20043;-77
2022/09/17 02:07:59;;;;;;;16.15;2.88;;;12.00;99.90;;;;;;5062658;28;20492;-77
2022/09/17 02:10:29;;;;;;;22.20;3.35;;;12.00;99.90;;;;;;5063639;28;20055;-77
2022/09/17 02:12:59;;;;;;;18.55;3.45;;;12.00;99.90;;;;;;5066536;28;20040;-77
2022/09/17 02:15:30;;;;;;;19.47;3.00;;;12.00;99.90;;;;;;5068527;28;20839;-77
2022/09/17 02:18:06;;;;;;;18.85;3.90;;;12.00;99.90;;;;;;5058295;28;20111;-76
2022/09/17 02:20:39;;;;;;;19.00;3.45;;;12.00;99.90;;;;;;5059028;28;20028;-76
2022/09/17 02:23:15;;;;;;;14.57;3.00;;;12.00;99.90;;;;;;5037657;28;20021;-76
2022/09/17 02:25:47;;;;;;;20.08;4.35;;;12.00;99.90;;;;;;5060089;28;20036;-76
2022/09/17 02:28:24;;;;;;;18.33;3.10;;;12.00;99.90;;;;;;5061728;28;20024;-76
2022/09/17 02:30:50;;;;;;;19.65;3.30;;;12.10;99.90;;;;;;5044982;28;20025;-77
2022/09/17 02:33:19;;;;;;;19.15;3.30;;;12.10;99.90;;;;;;5061532;28;20079;-76
2022/09/17 02:35:46;;;;;;;20.30;3.17;;;12.10;99.90;;;;;;5043493;28;20032;-75
2022/09/17 02:38:12;;;;;;;17.95;4.20;;;12.10;99.90;;;;;;5046763;28;20092;-77
2022/09/17 02:40:49;;;;;;;23.10;3.55;;;12.10;99.90;;;;;;5048227;28;20024;-77
2022/09/17 02:43:33;;;;;;;17.00;2.95;;;12.10;99.90;;;;;;5066621;28;20025;-76
2022/09/17 02:46:31;;;;;;;18.05;2.95;;;12.10;99.90;;;;;;5065286;28;20034;-76
2022/09/17 02:49:30;;;;;;;18.50;3.58;;;12.10;99.90;;;;;;5032595;28;20492;-76
2022/09/17 02:52:12;;;;;;;18.75;3.42;;;12.10;99.90;;;;;;5058625;28;20056;-76
2022/09/17 02:54:42;;;;;;;15.35;3.05;;;12.10;99.90;;;;;;5060448;28;20042;-76
2022/09/17 02:57:45;;;;;;;17.92;2.85;;;12.10;99.90;;;;;;5058111;28;20029;-75
2022/09/17 03:00:19;;;;;;;20.35;4.07;;;12.10;99.90;;;;;;5049388;28;20256;-76
2022/09/17 03:03:06;;;;;;;14.82;3.13;;;12.10;99.90;;;;;;5058462;28;20066;-77
2022/09/17 03:05:34;;;;;;;19.42;3.35;;;12.10;99.90;;;;;;5039073;28;20115;-76
2022/09/17 03:08:00;;;;;;;18.00;2.63;;;12.10;99.90;;;;;;5050992;28;20146;-76
2022/09/17 03:10:29;;;;;;;22.30;3.28;;;12.10;99.90;;;;;;5064057;28;20016;-77
2022/09/17 03:12:56;;;;;;;19.98;3.35;;;12.10;99.90;;;;;;5059933;28;20032;-77
2022/09/17 03:15:22;;;;;;;17.95;3.08;;;12.10;99.90;;;;;;5045790;28;20036;-76
2022/09/17 03:17:47;;;;;;;15.80;3.13;;;12.00;99.90;;;;;;5059685;28;20025;-75
2022/09/17 03:20:14;;;;;;;12.20;2.58;;;12.10;99.90;;;;;;5065126;28;20024;-76
2022/09/17 03:22:41;;;;;;;20.35;3.13;;;12.10;99.90;;;;;;5046261;28;20036;-76
2022/09/17 03:25:07;;;;;;;17.50;3.45;;;12.10;99.90;;;;;;5069418;28;20032;-76
2022/09/17 03:27:33;;;;;;;12.10;1.90;;;12.10;99.90;;;;;;5065984;28;20024;-76
2022/09/17 03:30:00;;;;;;;18.05;3.00;;;12.10;99.90;;;;;;5063703;28;20074;-76
2022/09/17 03:32:25;;;;;;;17.95;3.35;;;12.10;99.90;;;;;;5059359;28;20025;-77
2022/09/17 03:34:53;;;;;;;14.30;2.50;;;12.10;99.90;;;;;;5065911;28;20043;-77
2022/09/17 03:37:19;;;;;;;16.70;3.03;;;12.10;99.90;;;;;;5068095;28;20449;-77
2022/09/17 03:39:45;;;;;;;23.55;3.20;;;12.10;99.90;;;;;;5066673;28;20032;-76
2022/09/17 03:42:10;;;;;;;13.52;3.63;;;12.10;99.90;;;;;;5068085;28;20024;-76
2022/09/17 03:44:36;;;;;;;15.85;2.75;;;12.10;99.90;;;;;;5063458;28;20039;-76
2022/09/17 03:47:02;;;;;;;14.48;2.50;;;12.10;99.90;;;;;;5063119;28;20024;-75
2022/09/17 03:49:28;;;;;;;17.38;3.05;;;12.10;99.90;;;;;;5067463;28;20575;-76
2022/09/17 03:51:53;;;;;;;14.68;2.55;;;12.10;99.90;;;;;;5065920;28;20082;-77
2022/09/17 03:54:19;;;;;;;12.98;2.20;;;12.10;99.90;;;;;;5066625;28;20029;-76
2022/09/17 03:56:45;;;;;;;13.68;2.50;;;12.10;99.90;;;;;;5048159;28;20481;-78
2022/09/17 03:59:10;;;;;;;16.20;3.15;;;12.10;99.90;;;;;;5068099;28;20025;-76
2022/09/17 04:01:36;;;;;;;14.82;3.22;;;12.00;99.90;;;;;;5068383;28;20074;-77
2022/09/17 04:04:03;;;;;;;13.30;3.15;;;12.00;99.90;;;;;;5065073;28;20467;-77
2022/09/17 04:06:29;;;;;;;12.02;3.03;;;12.00;99.90;;;;;;5063304;28;20120;-77
2022/09/17 04:08:55;;;;;;;12.90;2.42;;;12.00;99.90;;;;;;5067415;28;20092;-76
2022/09/17 04:11:21;;;;;;;10.18;2.00;;;12.00;99.90;;;;;;5063646;28;20112;-77
2022/09/17 04:13:47;;;;;;;13.40;2.17;;;12.00;99.90;;;;;;5064563;28;20100;-77
2022/09/17 04:16:13;;;;;;;9.57;2.00;;;12.00;99.90;;;;;;5066073;28;20099;-77
2022/09/17 04:18:39;;;;;;;11.85;1.73;;;12.00;99.90;;;;;;5062336;28;20082;-77
2022/09/17 04:21:05;;;;;;;12.20;2.38;;;11.90;99.90;;;;;;5059221;28;20598;-77
2022/09/17 04:23:31;;;;;;;9.85;2.17;;;11.90;99.90;;;;;;5051658;28;20027;-77
2022/09/17 04:25:57;;;;;;;13.98;2.53;;;11.90;99.90;;;;;;5069212;28;20062;-77
2022/09/17 04:28:22;;;;;;;10.90;3.00;;;11.90;99.90;;;;;;5064014;28;20078;-76
2022/09/17 04:30:48;;;;;;;14.10;3.00;;;11.80;99.90;;;;;;5060882;28;20107;-77
2022/09/17 04:33:15;;;;;;;15.88;2.42;;;11.80;99.90;;;;;;5062691;28;20028;-76
2022/09/17 04:35:42;;;;;;;14.15;2.20;;;11.80;99.90;;;;;;5061019;28;20024;-77
2022/09/17 04:38:08;;;;;;;16.58;3.22;;;11.80;99.90;;;;;;5064769;28;20052;-77
2022/09/17 04:40:34;;;;;;;16.23;2.90;;;11.80;99.90;;;;;;5066676;28;20043;-77
2022/09/17 04:43:01;;;;;;;14.65;2.92;;;11.80;99.90;;;;;;5060917;28;20025;-76
2022/09/17 04:45:28;;;;;;;11.20;1.90;;;11.70;99.90;;;;;;5066940;28;20040;-76
2022/09/17 04:47:54;;;;;;;13.98;2.30;;;11.70;99.90;;;;;;5064807;28;20025;-76
2022/09/17 04:50:21;;;;;;;8.15;1.98;;;11.70;99.90;;;;;;5064591;28;20039;-76
2022/09/17 04:52:47;;;;;;;15.68;2.50;;;11.70;99.90;;;;;;5061280;28;20496;-76
2022/09/17 04:55:14;;;;;;;13.43;2.15;;;11.70;99.90;;;;;;5062157;28;20025;-77
2022/09/17 04:57:46;;;;;;;16.08;3.00;;;11.70;99.90;;;;;;5062488;28;20392;-77
2022/09/17 05:00:12;;;;;;;13.82;1.90;;;11.70;99.90;;;;;;5065847;28;20028;-77
2022/09/17 05:02:39;;;;;;;12.07;2.45;;;11.70;99.90;;;;;;5051277;28;20033;-77
2022/09/17 05:05:05;;;;;;;16.63;2.85;;;11.70;99.90;;;;;;5080337;28;20031;-77
2022/09/17 05:07:31;;;;;;;18.00;3.47;;;11.70;99.90;;;;;;5064175;28;20024;-77
2022/09/17 05:09:56;;;;;;;15.77;2.55;;;11.70;99.90;;;;;;5051567;28;20071;-77
2022/09/17 05:12:22;;;;;;;12.98;2.47;;;11.70;99.90;;;;;;5046263;28;20024;-77
2022/09/17 05:14:47;;;;;;;13.50;2.22;;;11.70;99.90;;;;;;5068437;28;20456;-77
2022/09/17 05:17:13;;;;;;;14.13;2.58;;;11.70;99.90;;;;;;5043648;28;20059;-77
2022/09/17 05:19:40;;;;;;;15.30;3.13;;;11.70;99.90;;;;;;5067952;28;20024;-77
2022/09/17 05:22:06;;;;;;;14.50;3.28;;;11.70;99.90;;;;;;5043570;28;20033;-77
2022/09/17 05:24:32;;;;;;;12.15;3.20;;;11.80;99.90;;;;;;5071165;28;20021;-76
2022/09/17 05:27:00;;;;;;;14.57;2.47;;;11.80;99.90;;;;;;5066165;28;20036;-79
2022/09/17 05:29:25;;;;;;;14.00;2.83;;;11.80;99.90;;;;;;5064819;28;20055;-79
2022/09/17 05:31:51;;;;;;;10.27;2.08;;;11.80;99.90;;;;;;5066673;28;20087;-79
2022/09/17 05:34:17;;;;;;;12.88;2.80;;;11.70;99.90;;;;;;5066556;28;20052;-78
2022/09/17 05:36:42;;;;;;;13.60;2.38;;;11.80;99.90;;;;;;5078498;28;20065;-78
2022/09/17 05:39:08;;;;;;;11.63;2.58;;;11.80;99.90;;;;;;5052628;28;20043;-77
2022/09/17 05:41:34;;;;;;;14.30;2.65;;;11.80;99.90;;;;;;5058805;28;20547;-77
2022/09/17 05:43:59;;;;;;;13.80;2.10;;;11.80;99.90;;;;;;5064379;28;20028;-76
2022/09/17 05:46:25;;;;;;;7.00;1.20;;;11.80;99.90;;;;;;5079999;28;20031;-76
2022/09/17 05:48:55;;;;;;;14.73;2.95;;;12.70;99.90;;;;;;5065390;28;20362;-77
2022/09/17 05:51:20;;;;;;;15.27;3.08;;;13.10;99.90;;;;;;5065510;28;20051;-77
2022/09/17 05:53:46;;;;;;;13.93;2.63;;;12.70;99.90;;;;;;5061537;28;20618;-77
2022/09/17 05:56:12;;;;;;;16.13;2.53;;;12.40;99.90;;;;;;5061938;28;20043;-77
2022/09/17 05:58:40;;;;;;;18.48;3.53;;;12.20;99.90;;;;;;5041801;28;20056;-77
2022/09/17 06:01:06;;;;;;;13.23;2.08;;;12.20;99.90;;;;;;5061769;28;20044;-77
2022/09/17 06:03:32;;;;;;;9.80;1.90;;;12.10;99.90;;;;;;5064786;28;20024;-77
2022/09/17 06:05:59;;;;;;;18.05;2.22;;;12.10;99.90;;;;;;5062486;28;20032;-77
2022/09/17 06:08:27;;;;;;;18.98;3.10;;;12.00;99.90;;;;;;5069148;28;20024;-77
2022/09/17 06:10:52;;;;;;;7.85;1.48;;;12.00;99.90;;;;;;5058051;28;20101;-77
2022/09/17 06:13:19;;;;;;;16.35;2.75;;;13.00;99.90;;;;;;5069283;28;20484;-77
2022/09/17 06:15:50;;;;;;;14.80;2.92;;;12.70;99.90;;;;;;5061169;28;20137;-76
2022/09/17 06:18:17;;;;;;;13.38;2.30;;;12.50;99.90;;;;;;5064568;28;20021;-78
2022/09/17 06:20:51;;;;;;;10.90;2.28;;;12.30;99.90;;;;;;5062614;28;20164;-77
2022/09/17 06:23:17;;;;;;;16.17;2.72;;;12.10;99.90;;;;;;5051283;28;20111;-78
2022/09/17 06:25:42;;;;;;;9.10;2.35;;;12.00;99.90;;;;;;5045996;28;20135;-78
2022/09/17 06:28:08;;;;;;;15.15;2.90;;;11.90;99.90;;;;;;5063369;28;20044;-77
2022/09/17 06:30:35;;;;;;;16.88;1.98;;;11.80;99.90;;;;;;5065899;28;20024;-78
2022/09/17 06:33:01;;;;;;;8.93;2.00;;;11.80;99.90;;;;;;5064976;28;20027;-78
2022/09/17 06:35:27;;;;;;;16.85;3.40;;;11.70;99.90;;;;;;5061241;28;20024;-78
2022/09/17 06:37:53;;;;;;;13.73;1.90;;;11.70;99.90;;;;;;5061918;28;20028;-78
2022/09/17 06:40:18;;;;;;;18.55;3.78;;;11.60;99.90;;;;;;5043544;28;20131;-78
2022/09/17 06:42:44;;;;;;;18.05;2.20;;;11.60;99.90;;;;;;5061416;28;20495;-77
2022/09/17 06:45:10;;;;;;;18.13;2.28;;;11.60;99.90;;;;;;5060386;28;20048;-78
2022/09/17 06:47:35;;;;;;;14.63;2.17;;;11.70;99.90;;;;;;5058822;28;20102;-78
2022/09/17 06:50:01;;;;;;;9.80;2.03;;;11.70;99.90;;;;;;5040609;28;20125;-77
2022/09/17 06:52:27;;;;;;;17.95;2.53;;;11.70;99.90;;;;;;5058970;28;20173;-77
2022/09/17 06:54:53;;;;;;;12.32;1.88;;;11.70;99.90;;;;;;5065621;28;20020;-78
2022/09/17 06:57:19;;;;;;;13.43;1.67;;;11.70;99.90;;;;;;5061054;28;20037;-77
2022/09/17 06:59:44;;;;;;;14.32;1.88;;;11.70;99.90;;;;;;5045189;28;20040;-77
2022/09/17 07:02:10;;;;;;;11.20;1.40;;;11.70;99.90;;;;;;5057616;28;20605;-77
2022/09/17 07:04:37;;;;;;;9.57;1.33;;;11.70;99.90;;;;;;5061273;28;20483;-77
2022/09/17 07:07:04;;;;;;;6.78;1.40;;;11.80;99.90;;;;;;5059758;28;20058;-75
2022/09/17 07:09:30;;;;;;;9.80;1.20;;;11.80;99.90;;;;;;5062083;28;20095;-77
2022/09/17 07:11:56;;;;;;;8.88;1.20;;;11.80;99.90;;;;;;5067987;28;20028;-78
2022/09/17 07:14:23;;;;;;;8.82;1.75;;;11.90;99.90;;;;;;5045002;28;20028;-77
2022/09/17 07:16:49;;;;;;;11.07;1.30;;;12.00;99.90;;;;;;5069569;28;20020;-78
2022/09/17 07:19:15;;;;;;;7.57;1.67;;;12.10;99.90;;;;;;5062149;28;20496;-78
2022/09/17 07:21:41;;;;;;;8.73;1.30;;;12.10;99.90;;;;;;5067247;28;20047;-79
2022/09/17 07:24:06;;;;;;;7.40;1.20;;;12.20;99.90;;;;;;5060676;28;20519;-78
2022/09/17 07:26:32;;;;;;;8.43;1.20;;;12.20;99.90;;;;;;5070022;28;20035;-78
2022/09/17 07:28:58;;;;;;;5.25;0.90;;;12.20;99.90;;;;;;5063165;28;20480;-78
2022/09/17 07:31:24;;;;;;;6.95;1.10;;;12.20;99.90;;;;;;5075224;28;20115;-77
2022/09/17 07:33:49;;;;;;;7.30;1.20;;;12.20;99.90;;;;;;5056358;28;20032;-78
2022/09/17 07:36:19;;;;;;;4.82;1.15;;;12.20;99.90;;;;;;5051990;28;20032;-78
2022/09/17 07:38:46;;;;;;;6.88;1.00;;;12.30;99.90;;;;;;5037349;28;20488;-77
2022/09/17 07:41:14;;;;;;;8.07;1.67;;;12.30;99.90;;;;;;5066517;28;20036;-79
2022/09/17 07:43:41;;;;;;;7.57;1.20;;;12.30;99.90;;;;;;5050450;28;20033;-79
2022/09/17 07:46:12;;;;;;;4.25;1.17;;;12.40;99.90;;;;;;5067997;28;20032;-78
2022/09/17 07:48:38;;;;;;;;;;;12.40;99.90;;;;;;5058438;28;20103;-73
2022/09/17 07:51:04;;;;;;;9.32;1.63;;;12.40;99.90;;;;;;5054776;28;20184;-71
2022/09/17 07:53:29;;;;;;;6.53;1.48;;;12.50;99.90;;;;;;5055746;28;20519;-72
2022/09/17 07:55:57;;;;;;;3.78;1.45;;;12.50;99.90;;;;;;5053518;28;20404;-71
2022/09/17 07:58:28;;;;;;;11.82;1.90;;;12.60;99.90;;;;;;5045747;28;20619;-71
2022/09/17 08:01:03;;;;;;;5.43;1.35;;;12.60;99.90;;;;;;5048283;28;20028;-73
2022/09/17 08:03:29;;;;;;;8.18;1.90;;;12.60;99.90;;;;;;5039810;28;20043;-73
2022/09/17 08:06:04;;;;;;;8.50;1.77;;;12.70;99.90;;;;;;5061070;28;20033;-70
2022/09/17 08:08:32;;;;;;;10.90;2.25;;;12.80;99.90;;;;;;5060797;28;20032;-71
2022/09/17 08:11:03;;;;;;;11.52;1.67;;;12.80;99.90;;;;;;5048222;28;20135;-71
2022/09/17 08:13:29;;;;;;;9.90;1.85;;;12.90;99.90;;;;;;5079059;28;20075;-70
2022/09/17 08:16:02;;;;;;;10.27;2.22;;;12.80;99.90;;;;;;5061256;28;20130;-69
2022/09/17 08:18:29;;;;;;;10.93;2.10;;;12.80;99.90;;;;;;5055138;28;20025;-71
2022/09/17 08:20:59;;;;;;;10.50;1.98;;;12.80;99.90;;;;;;5058953;28;20078;-72
2022/09/17 08:23:26;;;;;;;9.70;2.28;;;12.70;99.90;;;;;;5065983;28;20503;-78
2022/09/17 08:25:54;;;;;;;11.90;2.10;;;12.60;99.90;;;;;;5073906;28;20028;-78
2022/09/17 08:28:21;;;;;;;9.90;2.03;;;12.50;99.90;;;;;;5069871;28;20036;-78
2022/09/17 08:30:48;;;;;;;10.35;1.50;;;12.50;99.90;;;;;;5066724;28;20021;-79
2022/09/17 08:33:14;;;;;;;5.30;1.77;;;12.50;99.90;;;;;;5067511;28;20017;-79
2022/09/17 08:35:39;;;;;;;13.35;2.47;;;12.50;99.90;;;;;;5049490;28;20102;-77
2022/09/17 08:38:06;;;;;;;11.00;1.60;;;12.50;99.90;;;;;;5057052;28;20031;-77
2022/09/17 08:40:39;;;;;;;7.43;2.08;;;12.50;99.90;;;;;;5065480;28;20576;-76
2022/09/17 08:43:15;;;;;;;10.75;1.95;;;12.60;99.90;;;;;;5063605;28;20028;-78
2022/09/17 08:45:42;;;;;;;8.40;1.80;;;12.70;99.90;;;;;;5067696;28;20028;-77
2022/09/17 08:48:12;;;;;;;13.05;1.70;;;12.90;99.90;;;;;;5077524;28;20110;-79
2022/09/17 08:50:41;;;;;;;7.75;1.25;;;13.00;99.90;;;;;;5068982;28;20033;-68
2022/09/17 08:53:39;;;;;;;6.47;1.25;;;13.10;99.90;;;;;;5066274;28;20039;-78
2022/09/17 08:56:17;;;;;;;7.35;1.80;;;13.10;99.90;;;;;;5052602;28;20033;-80
2022/09/17 08:58:49;;;;;;;6.60;1.40;;;13.00;99.90;;;;;;5048973;28;20032;-77
2022/09/17 09:01:20;;;;;;;8.15;1.33;;;13.00;99.90;;;;;;5072751;28;20028;-78
2022/09/17 09:04:08;;;;;;;4.68;1.20;;;12.90;99.90;;;;;;5061775;28;20032;-77
2022/09/17 09:06:41;;;;;;;7.07;1.00;;;12.90;99.90;;;;;;5060767;28;20032;-78
2022/09/17 09:09:14;;;;;;;4.80;1.77;;;13.00;99.90;;;;;;5061122;28;20124;-75
2022/09/17 09:11:41;;;;;;;8.00;1.15;;;13.00;99.90;;;;;;5045061;28;20157;-75
2022/09/17 09:14:22;;;;;;;5.60;0.93;;;13.00;99.90;;;;;;5057644;28;20110;-77
2022/09/17 09:16:51;;;;;;;2.40;0.90;;;13.10;99.90;;;;;;5058253;28;20044;-75
2022/09/17 09:19:29;;;;;;;4.82;0.90;;;13.00;99.90;;;;;;5056241;28;20034;-77
2022/09/17 09:22:03;;;;;;;6.60;1.30;;;13.00;99.90;;;;;;5068082;28;20056;-78
2022/09/17 09:24:52;;;;;;;5.72;1.38;;;13.00;99.90;;;;;;5062515;28;20025;-77
2022/09/17 09:27:27;;;;;;;5.72;1.00;;;13.00;99.90;;;;;;5065907;28;20058;-77
2022/09/17 09:29:56;;;;;;;3.60;0.85;;;12.90;99.90;;;;;;5065144;28;20029;-78
2022/09/17 09:32:39;;;;;;;5.05;0.90;;;12.80;99.90;;;;;;5065009;28;20024;-77
2022/09/17 09:35:21;;;;;;;5.32;0.82;;;12.80;99.90;;;;;;5060424;28;20016;-77
2022/09/17 09:38:16;;;;;;;2.97;0.60;;;12.80;99.90;;;;;;5069104;28;20031;-78
2022/09/17 09:40:54;;;;;;;5.40;0.55;;;12.80;99.90;;;;;;5085340;28;20041;-78
2022/09/17 09:44:03;;;;;;;3.90;0.80;;;12.90;99.90;;;;;;5069416;28;20036;-78
2022/09/17 09:46:48;;;;;;;2.95;0.70;;;13.10;99.90;;;;;;5028580;28;20041;-78
2022/09/17 09:49:38;;;;;;;2.40;0.93;;;13.40;99.90;;;;;;5025421;28;20040;-78
2022/09/17 09:52:22;;;;;;;2.85;1.15;;;13.60;99.90;;;;;;5016232;28;20124;-78
2022/09/17 09:55:06;;;;;;;4.15;0.70;;;13.60;99.90;;;;;;5011347;28;20025;-78
2022/09/17 09:57:41;;;;;;;1.42;0.75;;;13.90;99.90;;;;;;5025273;28;20065;-77
2022/09/17 10:00:31;;;;;;;2.70;0.80;;;13.80;99.90;;;;;;5010670;28;20075;-78
2022/09/17 10:03:15;;;;;;;4.60;0.60;;;13.60;99.90;;;;;;5008367;28;20033;-77
2022/09/17 10:05:57;;;;;;;3.65;0.50;;;13.50;99.90;;;;;;5007828;28;20033;-77
2022/09/17 10:08:24;;;;;;;2.83;0.73;;;13.40;99.90;;;;;;5026437;28;20052;-78
2022/09/17 10:11:03;;;;;;;3.78;0.90;;;13.50;99.90;;;;;;5008928;28;20051;-77
2022/09/17 10:13:34;;;;;;;2.28;0.75;;;13.80;99.90;;;;;;5026527;28;20029;-78
2022/09/17 10:16:20;;;;;;;4.57;0.98;;;14.10;99.90;;;;;;4995005;28;20017;-78
2022/09/17 10:19:04;;;;;;;6.55;1.23;;;14.10;99.90;;;;;;5055991;28;20493;-77
2022/09/17 10:21:34;;;;;;;4.82;0.93;;;14.10;99.90;;;;;;5064089;28;20027;-77
2022/09/17 10:24:02;;;;;;;3.95;1.23;;;14.00;99.90;;;;;;5068188;28;20047;-78
2022/09/17 10:26:29;;;;;;;5.97;1.40;;;14.00;99.90;;;;;;5069832;28;20032;-77
2022/09/17 10:28:58;;;;;;;3.95;0.77;;;14.10;99.90;;;;;;5067667;28;20033;-78
2022/09/17 10:31:23;;;;;;;8.40;1.30;;;14.10;99.90;;;;;;5048297;28;20025;-78
2022/09/17 10:33:52;;;;;;;3.95;0.88;;;14.20;99.90;;;;;;5066449;28;20047;-78
2022/09/17 10:36:44;;;;;;;3.47;0.80;;;14.10;99.90;;;;;;5066711;28;20103;-78
2022/09/17 10:39:30;;;;;;;5.28;0.80;;;14.30;99.90;;;;;;5051651;28;20027;-77
2022/09/17 10:42:11;;;;;;;3.33;0.80;;;14.30;99.90;;;;;;5065775;28;20053;-78
2022/09/17 10:44:49;;;;;;;4.47;0.77;;;14.30;99.90;;;;;;5062229;28;20481;-77
2022/09/17 10:47:23;;;;;;;4.40;0.85;;;14.40;99.90;;;;;;5068562;28;20578;-78
2022/09/17 10:49:55;;;;;;;3.38;0.63;;;14.30;99.90;;;;;;5068258;28;20035;-78
2022/09/17 10:52:25;;;;;;;4.20;0.95;;;14.20;99.90;;;;;;5066389;28;20108;-77
2022/09/17 10:54:56;;;;;;;1.80;0.63;;;14.20;99.90;;;;;;5078013;28;20030;-76
2022/09/17 10:57:50;;;;;;;5.05;0.73;;;14.10;99.90;;;;;;5070717;28;20501;-77
2022/09/17 11:00:22;;;;;;;2.55;0.80;;;14.10;99.90;;;;;;5065441;28;20048;-78
2022/09/17 11:03:06;;;;;;;3.90;0.80;;;14.20;99.90;;;;;;5065656;28;20257;-77
2022/09/17 11:05:54;;;;;;;8.18;1.10;;;14.10;99.90;;;;;;5066062;28;20362;-78
2022/09/17 11:09:00;;;;;;;5.97;0.90;;;14.20;99.90;;;;;;5066173;28;20042;-77
2022/09/17 11:11:35;;;;;;;7.40;1.05;;;14.10;99.90;;;;;;4995413;28;20044;-78
2022/09/17 11:14:12;;;;;;;5.05;1.13;;;14.20;99.90;;;;;;5016471;28;20074;-77
2022/09/17 11:16:56;;;;;;;6.35;0.88;;;14.20;99.90;;;;;;5004691;28;20120;-78
2022/09/17 11:19:56;;;;;;;4.45;1.70;;;14.40;99.90;;;;;;4990034;28;20391;-78
2022/09/17 11:22:46;;;;;;;6.55;0.80;;;15.10;99.90;;;;;;4994624;28;20033;-77
2022/09/17 11:25:41;;;;;;;3.55;1.10;;;15.50;99.90;;;;;;5011423;28;20557;-78
2022/09/17 11:28:36;;;;;;;3.28;0.98;;;15.70;99.90;;;;;;4994151;28;20045;-78
2022/09/17 11:31:25;;;;;;;6.78;1.10;;;15.90;99.90;;;;;;5006742;28;20465;-78
2022/09/17 11:34:17;;;;;;;6.15;1.30;;;16.00;99.90;;;;;;5008926;28;20038;-78
2022/09/17 11:36:45;;;;;;;3.60;1.15;;;16.20;99.90;;;;;;5005858;28;20029;-78
2022/09/17 11:39:22;;;;;;;3.25;1.00;;;16.30;99.90;;;;;;4995586;28;20068;-78
2022/09/17 11:41:51;;;;;;;5.03;1.40;;;16.30;99.90;;;;;;4989360;28;20035;-78
2022/09/17 11:44:19;;;;;;;6.10;2.10;;;16.30;99.90;;;;;;5011245;28;20029;-78
2022/09/17 11:46:58;;;;;;;4.25;1.27;;;16.10;99.90;;;;;;5014866;28;20032;-79
2022/09/17 11:49:43;;;;;;;4.85;1.20;;;16.40;99.90;;;;;;5070089;28;20404;-78
2022/09/17 11:52:33;;;;;;;2.35;0.73;;;16.50;99.90;;;;;;5071335;28;20016;-78
2022/09/17 11:55:04;;;;;;;5.73;1.20;;;16.10;99.90;;;;;;5052421;28;20043;-78
2022/09/17 11:57:34;;;;;;;5.95;1.50;;;15.90;99.90;;;;;;5043429;28;20468;-79
2022/09/17 12:00:04;;;;;;;4.05;1.08;;;15.80;99.90;;;;;;5072260;28;20614;-78
2022/09/17 12:03:09;;;;;;;6.38;1.42;;;15.60;99.90;;;;;;5072661;28;20032;-78
2022/09/17 12:05:38;;;;;;;6.80;1.48;;;15.30;99.90;;;;;;5069303;28;20067;-77
2022/09/17 12:08:19;;;;;;;4.80;1.30;;;15.10;99.90;;;;;;5072281;28;20404;-79
2022/09/17 12:11:03;;;;;;;5.00;1.10;;;15.10;99.90;;;;;;5078454;28;20048;-77
2022/09/17 12:13:29;;;;;;;6.22;1.10;;;15.10;99.90;;;;;;5081424;28;20401;-78
2022/09/17 12:16:03;;;;;;;10.38;1.70;;;15.20;99.90;;;;;;5071113;28;20042;-78
2022/09/17 12:19:04;;;;;;;9.10;3.10;;;15.10;99.90;;;;;;5049087;28;20025;-78
2022/09/17 12:21:37;;;;;;;4.07;1.33;;;15.10;99.90;;;;;;5068082;28;20033;-76
2022/09/17 12:24:24;;;;;;;4.22;1.50;;;15.40;99.90;;;;;;5060445;28;20020;-78
2022/09/17 12:27:09;;;;;;;10.38;1.48;;;15.50;99.90;;;;;;5072944;28;20395;-77
2022/09/17 12:29:44;;;;;;;10.57;1.83;;;15.60;99.90;;;;;;5066116;28;20145;-77
2022/09/17 12:32:31;;;;;;;8.88;2.05;;;15.30;99.90;;;;;;5071631;28;20024;-77
2022/09/17 12:35:09;;;;;;;6.88;1.70;;;15.20;99.90;;;;;;5060831;28;20032;-77
2022/09/17 12:38:04;;;;;;;9.73;2.67;;;15.10;99.90;;;;;;5067794;28;20536;-78
2022/09/17 12:40:51;;;;;;;10.40;2.70;;;15.10;99.90;;;;;;5068243;28;20472;-78
2022/09/17 12:43:27;;;;;;;7.05;1.45;;;15.10;99.90;;;;;;5048434;28;20025;-77
2022/09/17 12:46:05;;;;;;;9.05;1.27;;;15.10;99.90;;;;;;5064433;28;20117;-77
2022/09/17 12:49:08;;;;;;;8.73;1.48;;;15.30;99.90;;;;;;5069708;28;20024;-76
2022/09/17 12:51:58;;;;;;;7.97;2.17;;;15.30;99.90;;;;;;5083805;28;20155;-77
2022/09/17 12:54:59;;;;;;;12.05;3.88;;;15.60;99.90;;;;;;5068343;28;20040;-76
2022/09/17 12:57:34;;;;;;;7.50;2.90;;;15.70;99.90;;;;;;5055357;28;20028;-77
2022/09/17 13:00:09;;;;;;;8.07;2.78;;;15.80;99.90;;;;;;5069405;28;20033;-79
2022/09/17 13:02:39;;;;;;;7.97;1.40;;;15.60;99.90;;;;;;5074271;28;20111;-77
2022/09/17 13:05:28;;;;;;;10.02;1.92;;;15.40;99.90;;;;;;5066215;28;20032;-77
2022/09/17 13:08:02;;;;;;;9.35;2.15;;;15.40;99.90;;;;;;5055931;28;20036;-77
2022/09/17 13:10:40;;;;;;;9.52;1.65;;;15.40;99.90;;;;;;5071066;28;20036;-78